Cornish, Maine
Current Conditions -  °F | °C
As of 4:54 PM on Friday 31 Oct 2014 (Local Time) from KIZG Reporting Station
Overcast Overcast  
Wind Chill: 49°   Ceiling: 6000
Heat Index: 49°   Visibility: 10mi
Dew Point: 33°   Wind: 0mph
Humidity: 54%   Direction: NA
Pressure: 30.01"   Gusts: NA
Location:  43.8°N, 70.8°W
Report Text: KIZG 312054Z AUTO 00000KT 10SM OVC060 09/01 A3001 RMK AO2 SLP166 T00940006 53001
Loading
Personal Weather Stations






























Interactive Weather Map
Tropical Storm Tracking
New forecast layout! Learn more

10-Day Weather Forecast

Advertisements
Track Severe Weather on mobile